Time;durP1;ratioP1;P1;durP2;ratioP2;P2;SDS_P1;SDS_P2;PMS_P1;PMS_P2;Temp;Humidity;BMP_temperature;BMP_pressure;BME280_temperature;BME280_humidity;BME280_pressure;Samples;Min_cycle;Max_cycle;Signal;HPM_P1;HPM_P2
2021/12/13 00:01:50;;;;;;;4.10;1.92;;;;;;;-149.78;100.00;50500.78;5139464;27;20446;-72
2021/12/13 00:04:16;;;;;;;7.55;1.70;;;;;;;-149.78;100.00;50475.34;5137508;27;20042;-72
2021/12/13 00:07:03;;;;;;;5.78;1.80;;;;;;;-149.78;100.00;50502.75;5133707;27;20031;-72
2021/12/13 00:09:33;;;;;;;5.00;2.03;;;;;;;-149.78;100.00;50489.03;5149864;27;20034;-72
2021/12/13 00:12:03;;;;;;;4.55;1.80;;;;;;;-149.78;100.00;50494.91;5137892;27;20085;-72
2021/12/13 00:14:36;;;;;;;5.43;2.90;;;;;;;-149.78;100.00;50494.91;5141834;27;20027;-72
2021/12/13 00:17:27;;;;;;;5.32;2.03;;;;;;;-149.78;100.00;50494.91;5147258;27;20019;-72
2021/12/13 00:20:17;;;;;;;4.38;1.70;;;;;;;-149.78;100.00;50512.50;5137886;27;20031;-72
2021/12/13 00:22:51;;;;;;;3.10;2.10;;;;;;;-149.78;100.00;50506.66;5142838;27;20086;-72
2021/12/13 00:25:20;;;;;;;3.35;1.95;;;;;;;-149.78;100.00;50506.66;5137802;27;20030;-72
2021/12/13 00:27:52;;;;;;;3.83;2.00;;;;;;;-149.78;100.00;50494.91;5145383;27;20030;-72
2021/12/13 00:30:36;;;;;;;2.15;1.65;;;;;;;-149.78;100.00;50487.09;5121485;27;20057;-72
2021/12/13 00:33:31;;;;;;;3.47;1.85;;;;;;;-149.78;100.00;50518.38;5135461;27;20049;-72
2021/12/13 00:36:03;;;;;;;6.13;2.03;;;;;;;-149.78;100.00;50541.84;5136626;27;20412;-72
2021/12/13 00:38:37;;;;;;;2.67;1.63;;;;;;;-149.78;100.00;50514.47;5119010;27;20116;-72
2021/12/13 00:41:12;;;;;;;7.60;2.17;;;;;;;-149.78;100.00;50479.28;5137602;27;20030;-72
2021/12/13 00:43:54;;;;;;;8.15;1.77;;;;;;;-149.78;100.00;50520.34;5138592;27;20411;-72
2021/12/13 00:46:23;;;;;;;3.15;1.50;;;;;;;-149.78;100.00;50510.56;5138694;27;20050;-72
2021/12/13 00:48:52;;;;;;;3.05;1.83;;;;;;;-149.78;100.00;50514.47;5134257;27;20058;-72
2021/12/13 00:51:27;;;;;;;3.72;1.73;;;;;;;-149.78;100.00;50512.50;5126479;27;20429;-72
2021/12/13 00:53:56;;;;;;;8.55;1.95;;;;;;;-149.78;100.00;50537.94;5149332;27;20022;-72
2021/12/13 00:57:03;;;;;;;3.47;1.70;;;;;;;-149.78;100.00;50506.66;5152557;27;20037;-72
2021/12/13 00:59:33;;;;;;;2.42;1.60;;;;;;;-149.78;100.00;50487.09;5157292;27;20038;-72
2021/12/13 01:02:26;;;;;;;2.25;1.65;;;;;;;-149.78;100.00;50512.50;5133711;27;20022;-72
2021/12/13 01:05:10;;;;;;;6.15;1.70;;;;;;;-149.78;100.00;50512.50;5127185;27;20027;-72
2021/12/13 01:08:02;;;;;;;2.50;1.80;;;;;;;-149.78;100.00;50461.66;5150399;27;20110;-72
2021/12/13 01:11:04;;;;;;;5.07;1.77;;;;;;;-149.78;100.00;50498.81;5151200;27;20771;-71
2021/12/13 01:14:04;;;;;;;4.53;1.75;;;;;;;-149.78;100.00;50498.81;5154246;27;20041;-72
2021/12/13 01:17:04;;;;;;;4.03;1.90;;;;;;;-149.78;100.00;50491.00;5113210;27;20039;-72
2021/12/13 01:19:50;;;;;;;2.47;1.40;;;;;;;-149.78;100.00;50510.56;5126275;27;20046;-72
2021/12/13 01:22:41;;;;;;;3.30;1.85;;;;;;;-149.78;100.00;50483.19;5148888;27;20339;-72
2021/12/13 01:28:26;;;;;;;4.80;1.50;;;;;;;-149.78;100.00;50459.72;5142443;27;20027;-72
2021/12/13 01:30:58;;;;;;;3.22;1.73;;;;;;;-149.78;100.00;50498.81;5146318;27;20038;-72
2021/12/13 01:33:25;;;;;;;4.20;1.80;;;;;;;-149.78;100.00;50524.25;5148869;27;20369;-72
2021/12/13 01:35:54;;;;;;;4.15;1.70;;;;;;;-149.78;100.00;50510.56;5148518;27;20041;-72
2021/12/13 01:38:33;;;;;;;2.35;1.40;;;;;;;-149.78;100.00;50491.00;5146532;27;20090;-72
2021/12/13 01:41:08;;;;;;;2.45;1.60;;;;;;;-149.78;100.00;50514.47;5149625;27;20029;-72
2021/12/13 01:43:38;;;;;;;2.72;1.50;;;;;;;-149.78;100.00;50498.81;5142829;27;20027;-72
2021/12/13 01:46:04;;;;;;;1.48;1.38;;;;;;;-149.78;100.00;50467.53;5141274;27;20427;-72
2021/12/13 01:48:34;;;;;;;4.32;1.55;;;;;;;-149.78;100.00;50506.66;5138929;27;20334;-72
2021/12/13 01:51:07;;;;;;;4.40;1.60;;;;;;;-149.78;100.00;50498.81;5141993;27;20085;-72
2021/12/13 01:53:46;;;;;;;4.72;1.95;;;;;;;-149.78;100.00;50483.19;5146446;27;20019;-72
2021/12/13 01:59:40;;;;;;;3.38;1.38;;;;;;;-149.78;100.00;50506.66;5140483;27;20024;-72
2021/12/13 02:02:09;;;;;;;2.85;1.60;;;;;;;-149.78;100.00;50506.66;5145895;27;20419;-72
2021/12/13 02:04:35;;;;;;;2.78;1.38;;;;;;;-149.78;100.00;50510.56;5142135;27;20027;-72
2021/12/13 02:07:04;;;;;;;2.33;1.33;;;;;;;-149.78;100.00;50508.59;5141605;27;20108;-72
2021/12/13 02:09:42;;;;;;;1.55;1.20;;;;;;;-149.78;100.00;50522.28;5141452;27;20031;-72
2021/12/13 02:12:14;;;;;;;1.85;1.33;;;;;;;-149.78;100.00;50479.28;5141801;27;20027;-72
2021/12/13 02:14:47;;;;;;;3.38;1.60;;;;;;;-149.78;100.00;50487.09;5145874;27;20466;-72
2021/12/13 02:17:21;;;;;;;2.03;1.23;;;;;;;-149.78;100.00;50483.19;5142948;27;20019;-72
2021/12/13 02:19:52;;;;;;;4.18;1.52;;;;;;;-149.78;100.00;50489.03;5138806;27;20027;-72
2021/12/13 02:22:35;;;;;;;3.78;1.45;;;;;;;-149.78;100.00;50487.09;5142841;27;20035;-72
2021/12/13 02:25:11;;;;;;;3.25;1.70;;;;;;;-149.78;100.00;50483.19;5136616;27;20043;-72
2021/12/13 02:27:40;;;;;;;2.08;1.70;;;;;;;-149.78;100.00;50498.81;5135446;27;20031;-72
2021/12/13 02:30:40;;;;;;;2.38;1.48;;;;;;;-149.78;100.00;50491.00;5135347;27;20027;-72
2021/12/13 02:33:12;;;;;;;2.60;1.60;;;;;;;-149.78;100.00;50496.88;5063854;27;20056;-72
2021/12/13 02:35:42;;;;;;;2.47;1.45;;;;;;;-149.78;100.00;50502.75;5137836;27;20060;-72
2021/12/13 02:38:10;;;;;;;5.18;1.50;;;;;;;-149.78;100.00;50494.91;5134994;27;20110;-72
2021/12/13 02:40:36;;;;;;;4.22;1.65;;;;;;;-149.78;100.00;50494.91;5125409;27;20022;-72
2021/12/13 02:43:07;;;;;;;3.88;1.52;;;;;;;-149.78;100.00;50498.81;5143106;27;20114;-72
2021/12/13 02:45:42;;;;;;;2.40;1.25;;;;;;;-149.78;100.00;50489.03;5133927;27;20031;-72
2021/12/13 02:48:20;;;;;;;2.45;1.50;;;;;;;-149.78;100.00;50491.00;5152699;27;20026;-72
2021/12/13 02:50:58;;;;;;;4.38;1.48;;;;;;;-149.78;100.00;50526.22;5119548;27;20027;-72
2021/12/13 02:53:35;;;;;;;1.85;1.40;;;;;;;-149.78;100.00;50487.09;5144733;27;20037;-72
2021/12/13 02:56:01;;;;;;;3.75;1.40;;;;;;;-149.78;100.00;50475.34;5145488;27;20027;-72
2021/12/13 02:58:29;;;;;;;2.22;1.50;;;;;;;-149.78;100.00;50498.81;5132828;27;20023;-72
2021/12/13 03:01:13;;;;;;;4.95;1.58;;;;;;;-149.78;100.00;50506.66;5144811;27;20038;-72
2021/12/13 03:03:44;;;;;;;2.85;1.73;;;;;;;-149.78;100.00;50494.91;5141585;27;20039;-72
2021/12/13 03:06:15;;;;;;;2.47;1.48;;;;;;;-149.78;100.00;50479.28;5130593;27;20027;-72
2021/12/13 03:08:46;;;;;;;4.68;1.55;;;;;;;-149.78;100.00;50510.56;5144725;27;20035;-72
2021/12/13 03:11:27;;;;;;;3.47;1.40;;;;;;;-149.78;100.00;50491.00;5144229;27;20034;-72
2021/12/13 03:14:00;;;;;;;2.28;1.63;;;;;;;-149.78;100.00;50506.66;5144430;27;20063;-72
2021/12/13 03:16:30;;;;;;;4.95;1.60;;;;;;;-149.78;100.00;50471.44;5152248;27;20027;-72
2021/12/13 03:19:02;;;;;;;2.65;1.67;;;;;;;-149.78;100.00;50492.97;5155032;27;20030;-72
2021/12/13 03:21:33;;;;;;;4.25;1.80;;;;;;;-149.78;100.00;50504.69;5152168;27;20023;-72
2021/12/13 03:24:22;;;;;;;3.88;1.55;;;;;;;-149.78;100.00;50483.19;5141428;27;20126;-72
2021/12/13 03:27:06;;;;;;;4.18;1.70;;;;;;;-149.78;100.00;50526.22;5151051;27;20030;-72
2021/12/13 03:29:50;;;;;;;2.65;1.70;;;;;;;-149.78;100.00;50483.19;5140970;27;20037;-72
2021/12/13 03:32:17;;;;;;;5.05;1.70;;;;;;;-149.78;100.00;50487.09;5142076;27;20059;-73
2021/12/13 03:35:03;;;;;;;1.67;1.27;;;;;;;-149.78;100.00;50526.22;5141184;27;20022;-72
2021/12/13 03:37:29;;;;;;;3.63;1.90;;;;;;;-149.78;100.00;50491.00;5143051;27;20095;-73
2021/12/13 03:40:06;;;;;;;3.65;1.60;;;;;;;-149.78;100.00;50491.00;5144820;27;20031;-72
2021/12/13 03:42:45;;;;;;;2.95;1.60;;;;;;;-149.78;100.00;50487.09;5146084;27;20030;-72
2021/12/13 03:45:37;;;;;;;5.40;1.70;;;;;;;-149.78;100.00;50514.47;5143150;27;20390;-72
2021/12/13 03:48:05;;;;;;;3.50;1.60;;;;;;;-149.78;100.00;50483.19;5137656;27;20065;-72
2021/12/13 03:50:37;;;;;;;2.35;1.77;;;;;;;-149.78;100.00;50494.91;5121837;27;20087;-72
2021/12/13 03:53:13;;;;;;;1.92;1.50;;;;;;;-149.78;100.00;50526.22;5145749;27;20027;-72
2021/12/13 03:55:41;;;;;;;4.10;1.70;;;;;;;-149.78;100.00;50514.47;5123992;27;20477;-72
2021/12/13 03:58:11;;;;;;;3.88;1.50;;;;;;;-149.78;100.00;50537.94;5142726;27;20035;-72
2021/12/13 04:00:55;;;;;;;3.22;1.70;;;;;;;-149.78;100.00;50487.09;5130812;27;20085;-72
2021/12/13 04:03:24;;;;;;;3.30;1.73;;;;;;;-149.78;100.00;50510.56;5138186;27;20027;-72
2021/12/13 04:05:53;;;;;;;1.65;1.48;;;;;;;-149.78;100.00;50487.09;5139654;27;20035;-73
2021/12/13 04:08:21;;;;;;;2.25;1.70;;;;;;;-149.78;100.00;50494.91;5142925;27;20031;-72
2021/12/13 04:10:50;;;;;;;3.10;1.85;;;;;;;-149.78;100.00;50516.44;5127236;27;20046;-72
2021/12/13 04:13:23;;;;;;;3.08;1.83;;;;;;;-149.78;100.00;50530.13;5142219;27;20026;-72
2021/12/13 04:19:07;;;;;;;3.55;1.98;;;;;;;-149.78;100.00;50496.88;5134271;27;20050;-72
2021/12/13 04:21:43;;;;;;;2.30;1.73;;;;;;;-149.78;100.00;50518.38;5115833;27;20123;-73
2021/12/13 04:24:19;;;;;;;2.38;1.88;;;;;;;-149.78;100.00;50496.88;5141856;27;20030;-72
2021/12/13 04:26:50;;;;;;;2.85;1.80;;;;;;;-149.78;100.00;50481.22;5134547;27;20085;-72
2021/12/13 04:29:26;;;;;;;2.53;1.60;;;;;;;-149.78;100.00;50510.56;5146016;27;20462;-72
2021/12/13 04:31:53;;;;;;;2.40;1.83;;;;;;;-149.78;100.00;50534.03;5129831;27;20110;-72
2021/12/13 04:34:23;;;;;;;2.80;1.75;;;;;;;-149.78;100.00;50502.75;5149547;27;20557;-72
2021/12/13 04:36:51;;;;;;;2.40;1.73;;;;;;;-149.78;100.00;50502.75;5147139;27;20473;-72
2021/12/13 04:39:35;;;;;;;3.22;1.65;;;;;;;-149.78;100.00;50479.28;5153251;27;20496;-72
2021/12/13 04:42:06;;;;;;;2.67;1.65;;;;;;;-149.78;100.00;50506.66;5127610;27;20134;-72
2021/12/13 04:44:37;;;;;;;2.20;1.50;;;;;;;-149.78;100.00;50530.13;5145282;27;20069;-72
2021/12/13 04:47:19;;;;;;;1.80;1.40;;;;;;;-149.78;100.00;50479.28;5141961;27;20039;-72
2021/12/13 04:49:55;;;;;;;2.57;1.63;;;;;;;-149.78;100.00;50487.09;5143231;27;20102;-72
2021/12/13 04:52:21;;;;;;;2.20;1.40;;;;;;;-149.78;100.00;50491.00;5114331;28;20032;-72
2021/12/13 04:54:50;;;;;;;2.17;1.50;;;;;;;-149.78;100.00;50510.56;5145771;27;20033;-73
2021/12/13 04:57:17;;;;;;;1.65;1.40;;;;;;;-149.78;100.00;50496.88;5145042;27;20117;-72
2021/12/13 04:59:53;;;;;;;1.88;1.30;;;;;;;-149.78;100.00;50475.34;5128782;27;20473;-72
2021/12/13 05:02:21;;;;;;;5.90;1.30;;;;;;;-149.78;100.00;50526.22;5144754;27;20047;-72
2021/12/13 05:04:53;;;;;;;2.20;1.10;;;;;;;-149.78;100.00;50518.38;5151143;27;20045;-72
2021/12/13 05:07:20;;;;;;;5.18;1.77;;;;;;;-149.78;100.00;50485.13;5153253;27;20027;-72
2021/12/13 05:09:48;;;;;;;8.55;1.58;;;;;;;-149.78;100.00;50492.97;5118917;27;20113;-72
2021/12/13 05:12:17;;;;;;;2.80;1.40;;;;;;;-149.78;100.00;50537.94;5130194;27;20087;-72
2021/12/13 05:14:54;;;;;;;2.35;1.17;;;;;;;-149.78;100.00;50479.28;5133083;27;20491;-73
2021/12/13 05:17:24;;;;;;;7.03;1.77;;;;;;;-149.78;100.00;50498.81;5149069;27;20073;-73
2021/12/13 05:20:16;;;;;;;11.95;1.50;;;;;;;-149.78;100.00;50526.22;5150892;27;20079;-72
2021/12/13 05:22:59;;;;;;;13.47;1.93;;;;;;;-149.78;100.00;50504.69;5135480;27;20026;-72
2021/12/13 05:25:46;;;;;;;11.70;1.85;;;;;;;-149.78;100.00;50530.13;5152780;27;20053;-72
2021/12/13 05:28:11;;;;;;;13.52;2.00;;;;;;;-149.78;100.00;50502.75;5154368;27;20030;-73
2021/12/13 05:30:54;;;;;;;10.07;1.75;;;;;;;-149.78;100.00;50510.56;5153607;27;20022;-72
2021/12/13 05:33:21;;;;;;;;;;;;;;;-149.78;100.00;50510.56;5133441;27;20026;-72
2021/12/13 05:35:51;;;;;;;12.27;1.75;;;;;;;-149.78;100.00;50508.59;5157514;27;19926;-72
2021/12/13 05:38:35;;;;;;;13.57;1.77;;;;;;;-149.78;100.00;50516.44;5150558;27;20031;-72
2021/12/13 05:41:04;;;;;;;13.48;2.30;;;;;;;-149.78;100.00;50518.38;5155245;27;20065;-72
2021/12/13 05:43:33;;;;;;;16.83;2.20;;;;;;;-149.78;100.00;50467.53;5157092;27;20034;-72
2021/12/13 05:46:01;;;;;;;9.70;1.58;;;;;;;-149.78;100.00;50510.56;5155713;27;20031;-72
2021/12/13 05:48:33;;;;;;;12.05;2.03;;;;;;;-149.78;100.00;50510.56;5157642;27;20042;-72
2021/12/13 05:51:19;;;;;;;15.43;2.25;;;;;;;-149.78;100.00;50545.75;5137422;27;20030;-72
2021/12/13 05:53:47;;;;;;;11.85;1.65;;;;;;;-149.78;100.00;50500.78;5149509;27;20027;-72
2021/12/13 05:56:16;;;;;;;7.40;1.80;;;;;;;-149.78;100.00;50530.13;5157260;27;20051;-72
2021/12/13 05:58:56;;;;;;;14.82;2.63;;;;;;;-149.78;100.00;50522.28;5155295;27;20031;-72
2021/12/13 06:01:43;;;;;;;10.90;2.28;;;;;;;-149.78;100.00;50526.22;5151603;27;20026;-73
2021/12/13 06:04:23;;;;;;;11.48;2.13;;;;;;;-149.78;100.00;50528.16;5155715;27;20050;-72
2021/12/13 06:06:54;;;;;;;16.13;2.40;;;;;;;-149.78;100.00;50512.50;5141656;27;20023;-72
2021/12/13 06:09:41;;;;;;;12.93;1.87;;;;;;;-149.78;100.00;50494.91;5137069;27;20030;-72
2021/12/13 06:12:15;;;;;;;16.67;1.67;;;;;;;-149.78;100.00;50510.56;5153060;27;20109;-72
2021/12/13 06:14:41;;;;;;;14.80;2.42;;;;;;;-149.78;100.00;50553.59;5155469;27;20022;-72
2021/12/13 06:17:16;;;;;;;12.65;1.90;;;;;;;-149.78;100.00;50532.06;5154172;27;20034;-72
2021/12/13 06:19:55;;;;;;;13.25;2.13;;;;;;;-149.78;100.00;50494.91;5157164;27;20423;-72
2021/12/13 06:22:25;;;;;;;11.65;2.10;;;;;;;-149.78;100.00;50524.25;5150556;27;20151;-72
2021/12/13 06:24:53;;;;;;;12.55;1.98;;;;;;;-149.78;100.00;50537.94;5156506;27;20532;-72
2021/12/13 06:27:24;;;;;;;17.25;2.10;;;;;;;-149.78;100.00;50481.22;5156664;27;20026;-72
2021/12/13 06:29:59;;;;;;;14.23;1.48;;;;;;;-149.78;100.00;50504.69;5151520;27;20033;-72
2021/12/13 06:32:39;;;;;;;11.38;1.65;;;;;;;-149.78;100.00;50491.00;5149680;27;20034;-72
2021/12/13 06:35:50;;;;;;;16.85;3.10;;;;;;;-149.78;100.00;50541.84;5153273;27;20022;-72
2021/12/13 06:38:36;;;;;;;9.20;1.85;;;;;;;-149.78;100.00;50498.81;5114859;27;20042;-72
2021/12/13 06:41:07;;;;;;;10.63;2.13;;;;;;;-149.78;100.00;50514.47;5142147;27;20027;-72
2021/12/13 06:43:48;;;;;;;17.25;2.80;;;;;;;-149.78;100.00;50526.22;5150919;27;20037;-72
2021/12/13 06:46:23;;;;;;;9.80;1.70;;;;;;;-149.78;100.00;50535.97;5102827;27;20050;-72
2021/12/13 06:48:59;;;;;;;7.47;1.65;;;;;;;-149.78;100.00;50494.91;5103182;27;20380;-72
2021/12/13 06:51:57;;;;;;;12.20;1.77;;;;;;;-149.78;100.00;50530.13;5128094;27;20129;-72
2021/12/13 06:54:38;;;;;;;7.97;2.13;;;;;;;-149.78;100.00;50518.38;5131193;27;20127;-72
2021/12/13 06:57:09;;;;;;;8.48;1.90;;;;;;;-149.78;100.00;50537.94;5137912;27;20377;-72
2021/12/13 06:59:49;;;;;;;15.27;2.08;;;;;;;-149.78;100.00;50506.66;5133147;27;20376;-72
2021/12/13 07:02:19;;;;;;;10.57;2.00;;;;;;;-149.78;100.00;50561.41;5140657;27;20036;-72
2021/12/13 07:04:53;;;;;;;14.05;2.40;;;;;;;-149.78;100.00;50553.59;5154775;27;20084;-72
2021/12/13 07:07:22;;;;;;;9.93;2.60;;;;;;;-149.78;100.00;50526.22;5132996;27;20042;-71
2021/12/13 07:09:57;;;;;;;16.15;3.38;;;;;;;-149.78;100.00;50526.22;5149178;27;20419;-70
2021/12/13 07:12:25;;;;;;;17.58;2.97;;;;;;;-149.78;100.00;50557.50;5152093;27;20580;-68
2021/12/13 07:14:51;;;;;;;10.13;2.33;;;;;;;-149.78;100.00;50530.13;5146022;27;20023;-69
2021/12/13 07:17:29;;;;;;;9.18;2.40;;;;;;;-149.78;100.00;50487.09;5128551;27;20035;-69
2021/12/13 07:19:57;;;;;;;16.60;2.17;;;;;;;-149.78;100.00;50494.91;5122789;27;20024;-73
2021/12/13 07:22:29;;;;;;;10.30;2.70;;;;;;;-149.78;100.00;50518.38;5136130;27;20499;-77
2021/12/13 07:25:11;;;;;;;19.88;2.83;;;;;;;-149.78;100.00;50534.03;5106826;27;20047;-74
2021/12/13 07:27:49;;;;;;;14.13;2.63;;;;;;;-149.78;100.00;50502.75;5130233;27;20351;-79
2021/12/13 07:30:25;;;;;;;11.20;2.15;;;;;;;-149.78;100.00;50530.13;5130156;27;20073;-77
2021/12/13 07:33:03;;;;;;;14.13;2.10;;;;;;;-149.78;100.00;50537.94;5126151;27;20023;-76
2021/12/13 07:35:34;;;;;;;16.60;2.55;;;;;;;-149.78;100.00;50518.38;5133404;27;20033;-76
2021/12/13 07:38:18;;;;;;;12.13;2.20;;;;;;;-149.78;100.00;50496.88;5139104;27;20036;-74
2021/12/13 07:40:48;;;;;;;13.77;2.45;;;;;;;-149.78;100.00;50537.94;5109979;27;20396;-74
2021/12/13 07:43:34;;;;;;;11.43;2.97;;;;;;;-149.78;100.00;50514.47;5109940;27;20072;-75
2021/12/13 07:46:03;;;;;;;21.45;3.20;;;;;;;-149.78;100.00;50528.16;5143697;27;20051;-74
2021/12/13 07:48:40;;;;;;;13.38;2.15;;;;;;;-149.78;100.00;50504.69;5129437;27;20026;-75
2021/12/13 07:51:20;;;;;;;12.30;2.40;;;;;;;-149.78;100.00;50553.59;5132269;27;20397;-74
2021/12/13 07:53:51;;;;;;;13.48;2.28;;;;;;;-149.78;100.00;50526.22;5094223;27;20027;-74
2021/12/13 07:56:24;;;;;;;12.07;2.35;;;;;;;-149.78;100.00;50530.13;5126314;27;20035;-77
2021/12/13 07:58:58;;;;;;;13.15;2.55;;;;;;;-149.78;100.00;50534.03;5133223;27;20027;-70
2021/12/13 08:01:26;;;;;;;12.93;2.53;;;;;;;-149.78;100.00;50506.66;5107620;27;20439;-74
2021/12/13 08:04:07;;;;;;;18.85;2.30;;;;;;;-149.78;100.00;50537.94;5102168;28;20027;-76
2021/12/13 08:06:39;;;;;;;11.18;2.47;;;;;;;-149.78;100.00;50543.81;5134200;27;20106;-76
2021/12/13 08:09:13;;;;;;;16.95;2.33;;;;;;;-149.78;100.00;50526.22;5139540;27;20358;-75
2021/12/13 08:11:44;;;;;;;13.40;2.50;;;;;;;-149.78;100.00;50530.13;5134271;27;20049;-75
2021/12/13 08:14:12;;;;;;;12.35;2.67;;;;;;;-149.78;100.00;50557.50;5123445;27;20336;-72
2021/12/13 08:16:44;;;;;;;15.95;2.80;;;;;;;-149.78;100.00;50537.94;5148505;27;20034;-73
2021/12/13 08:19:15;;;;;;;;;;;;;;;-149.78;100.00;50541.84;5103385;27;20105;-73
2021/12/13 08:21:45;;;;;;;8.30;2.65;;;;;;;-149.78;100.00;50518.38;5128593;27;19911;-73
2021/12/13 08:24:30;;;;;;;15.93;2.75;;;;;;;-149.78;100.00;50549.69;5105203;27;20440;-73
2021/12/13 08:27:02;;;;;;;14.68;2.72;;;;;;;-149.78;100.00;50573.16;5108837;27;20035;-78
2021/12/13 08:29:32;;;;;;;15.60;5.50;;;;;;;-149.78;100.00;50573.16;5135469;27;20027;-74
2021/12/13 08:32:06;;;;;;;18.50;5.43;;;;;;;-149.78;100.00;50565.31;5148976;27;20072;-74
2021/12/13 08:34:37;;;;;;;15.60;3.25;;;;;;;-149.78;100.00;50530.13;5109490;28;20035;-74
2021/12/13 08:37:12;;;;;;;16.33;3.73;;;;;;;-149.78;100.00;50561.41;5114018;28;20026;-73
2021/12/13 08:39:37;;;;;;;13.98;3.88;;;;;;;-149.78;100.00;50549.69;5133979;27;20347;-74
2021/12/13 08:42:12;;;;;;;12.40;3.92;;;;;;;-149.78;100.00;50535.97;5123418;27;20062;-73
2021/12/13 08:44:43;;;;;;;24.92;5.13;;;;;;;-149.78;100.00;50549.69;5120319;28;20023;-73
2021/12/13 08:47:14;;;;;;;18.08;3.88;;;;;;;-149.78;100.00;50537.94;5133787;28;20023;-73
2021/12/13 08:49:47;;;;;;;13.38;4.35;;;;;;;-149.78;100.00;50514.47;5115721;28;20110;-74
2021/12/13 08:52:16;;;;;;;19.20;3.80;;;;;;;-149.78;100.00;50522.28;5115543;28;20041;-73
2021/12/13 08:54:53;;;;;;;16.25;4.85;;;;;;;-149.78;100.00;50541.84;5133739;28;20042;-73
2021/12/13 08:57:45;;;;;;;14.52;4.45;;;;;;;-149.78;100.00;50547.72;5120869;27;20023;-73
2021/12/13 09:00:13;;;;;;;13.38;3.72;;;;;;;-149.78;100.00;50520.34;5137700;27;20049;-73
2021/12/13 09:03:12;;;;;;;14.32;3.85;;;;;;;-149.78;100.00;50530.13;5121230;27;20027;-73
2021/12/13 09:05:53;;;;;;;15.48;3.50;;;;;;;-149.78;100.00;50526.22;5119058;27;20392;-73
2021/12/13 09:08:26;;;;;;;10.50;2.90;;;;;;;-149.78;100.00;50545.75;5137544;27;20031;-73
2021/12/13 09:10:55;;;;;;;19.10;3.75;;;;;;;-149.78;100.00;50530.13;5119215;27;20031;-73
2021/12/13 09:13:50;;;;;;;17.85;3.50;;;;;;;-149.78;100.00;50569.22;5137223;27;20031;-73
2021/12/13 09:16:20;;;;;;;16.98;3.95;;;;;;;-149.78;100.00;50510.56;5119018;27;20428;-73
2021/12/13 09:19:05;;;;;;;17.23;3.53;;;;;;;-149.78;100.00;50522.28;5137330;27;20027;-73
2021/12/13 09:21:31;;;;;;;9.60;3.63;;;;;;;-149.78;100.00;50522.28;5119107;27;20041;-73
2021/12/13 09:23:57;;;;;;;10.73;3.55;;;;;;;-149.78;100.00;50534.03;5137068;27;20031;-73
2021/12/13 09:26:26;;;;;;;17.75;3.53;;;;;;;-149.78;100.00;50532.06;5118295;27;20027;-73
2021/12/13 09:29:03;;;;;;;14.20;4.07;;;;;;;-149.78;100.00;50502.75;5140627;27;20416;-73
2021/12/13 09:31:39;;;;;;;15.30;3.97;;;;;;;-149.78;100.00;50534.03;5141188;27;20034;-73
2021/12/13 09:34:18;;;;;;;15.60;4.35;;;;;;;-149.78;100.00;50553.59;5141385;27;20035;-73
2021/12/13 09:36:47;;;;;;;21.80;4.55;;;;;;;-149.78;100.00;50537.94;5121077;27;20412;-73
2021/12/13 09:39:24;;;;;;;15.75;3.80;;;;;;;-149.78;100.00;50575.09;5137123;27;20102;-73
2021/12/13 09:41:59;;;;;;;14.77;4.15;;;;;;;-149.78;100.00;50535.97;5136785;27;20029;-73
2021/12/13 09:44:38;;;;;;;25.83;4.50;;;;;;;-149.78;100.00;50537.94;5136678;27;20400;-73
2021/12/13 09:47:06;;;;;;;16.25;4.03;;;;;;;-149.78;100.00;50534.03;5136609;27;20077;-73
2021/12/13 09:49:45;;;;;;;17.63;4.63;;;;;;;-149.78;100.00;50530.13;5118365;27;20033;-73
2021/12/13 09:52:14;;;;;;;19.65;4.32;;;;;;;-149.78;100.00;50526.22;5136895;27;20392;-73
2021/12/13 09:54:49;;;;;;;12.93;4.00;;;;;;;-149.78;100.00;50557.50;5120041;27;20015;-73
2021/12/13 09:57:19;;;;;;;17.20;4.05;;;;;;;-149.78;100.00;50543.81;5136504;27;20031;-72
2021/12/13 09:59:50;;;;;;;28.27;4.18;;;;;;;-149.78;100.00;50537.94;5136276;27;20027;-73
2021/12/13 10:02:22;;;;;;;20.65;3.90;;;;;;;-149.78;100.00;50541.84;5136491;27;20084;-73
2021/12/13 10:04:50;;;;;;;15.27;3.65;;;;;;;-149.78;100.00;50514.47;5129701;27;20031;-73
2021/12/13 10:07:24;;;;;;;20.58;4.25;;;;;;;-149.78;100.00;50555.53;5136236;27;20039;-73
2021/12/13 10:09:54;;;;;;;14.07;3.88;;;;;;;-149.78;100.00;50528.16;5110861;27;20419;-73
2021/12/13 10:12:28;;;;;;;21.20;4.40;;;;;;;-149.78;100.00;50491.00;5125705;27;20027;-72
2021/12/13 10:15:01;;;;;;;18.52;4.43;;;;;;;-149.78;100.00;50516.44;5117747;27;20047;-74
2021/12/13 10:17:32;;;;;;;18.45;4.90;;;;;;;-149.78;100.00;50494.91;5138748;27;20474;-73
2021/12/13 10:20:11;;;;;;;20.15;4.30;;;;;;;-149.78;100.00;50537.94;5123035;27;20470;-73
2021/12/13 10:22:37;;;;;;;18.33;4.63;;;;;;;-149.78;100.00;50537.94;5129138;27;20027;-73
2021/12/13 10:25:10;;;;;;;21.58;4.75;;;;;;;-149.78;100.00;50502.75;5131811;27;20034;-73
2021/12/13 10:27:37;;;;;;;18.63;4.63;;;;;;;-149.78;100.00;50534.03;5136202;27;20034;-73
2021/12/13 10:30:07;;;;;;;20.67;4.63;;;;;;;-149.78;100.00;50502.75;5143931;27;20045;-73
2021/12/13 10:32:37;;;;;;;15.13;4.45;;;;;;;-149.78;100.00;50479.28;5113863;27;20377;-73
2021/12/13 10:35:11;;;;;;;28.23;4.30;;;;;;;-149.78;100.00;50506.66;5146311;27;20031;-73
2021/12/13 10:37:44;;;;;;;19.48;4.72;;;;;;;-149.78;100.00;50518.38;5134286;27;20075;-73
2021/12/13 10:40:30;;;;;;;17.83;4.53;;;;;;;-149.78;100.00;50508.59;5126602;27;20038;-73
2021/12/13 10:42:58;;;;;;;19.75;4.57;;;;;;;-149.78;100.00;50510.56;5103173;27;20027;-73
2021/12/13 10:45:31;;;;;;;20.17;5.32;;;;;;;-149.78;100.00;50487.09;5117138;27;20114;-73
2021/12/13 10:48:00;;;;;;;18.67;4.47;;;;;;;-149.78;100.00;50520.34;5117148;27;20535;-73
2021/12/13 10:50:34;;;;;;;12.48;4.68;;;;;;;-149.78;100.00;50487.09;5135586;27;20031;-73
2021/12/13 10:53:02;;;;;;;14.07;5.03;;;;;;;-149.78;100.00;50510.56;5135349;27;20065;-73
2021/12/13 10:55:34;;;;;;;21.02;5.70;;;;;;;-149.78;100.00;50561.41;5135550;27;20106;-73
2021/12/13 10:58:02;;;;;;;21.02;4.65;;;;;;;-149.78;100.00;50526.22;5117140;27;20031;-73
2021/12/13 11:00:43;;;;;;;12.30;4.47;;;;;;;-149.78;100.00;50518.38;5104041;27;20089;-73
2021/12/13 11:03:15;;;;;;;20.73;4.93;;;;;;;-149.78;100.00;50498.81;5125187;27;20054;-73
2021/12/13 11:05:42;;;;;;;20.00;4.50;;;;;;;-149.78;100.00;50526.22;5133797;27;20023;-73
2021/12/13 11:08:09;;;;;;;16.00;4.85;;;;;;;-149.78;100.00;50498.81;5089085;27;20034;-73
2021/12/13 11:11:04;;;;;;;18.17;4.30;;;;;;;-149.78;100.00;50510.56;5131436;27;20027;-73
2021/12/13 11:13:33;;;;;;;18.50;4.13;;;;;;;-149.78;100.00;50530.13;5125603;27;20043;-72
2021/12/13 11:16:07;;;;;;;21.30;4.22;;;;;;;-149.78;100.00;50522.28;5125017;27;20031;-72
2021/12/13 11:18:33;;;;;;;17.92;5.88;;;;;;;-149.78;100.00;50522.28;5114525;27;20027;-73
2021/12/13 11:21:05;;;;;;;21.95;5.22;;;;;;;-149.78;100.00;50541.84;5114068;27;20383;-73
2021/12/13 11:23:32;;;;;;;22.08;5.13;;;;;;;-149.78;100.00;50514.47;5099889;27;20030;-73
2021/12/13 11:26:02;;;;;;;15.02;4.32;;;;;;;-149.78;100.00;50487.09;5106286;27;20050;-73
2021/12/13 11:28:31;;;;;;;23.42;4.88;;;;;;;-149.78;100.00;50514.47;5141379;27;20034;-73
2021/12/13 11:31:30;;;;;;;16.48;4.32;;;;;;;-149.78;100.00;50549.69;5135062;27;20019;-74
2021/12/13 11:34:01;;;;;;;17.52;4.05;;;;;;;-149.78;100.00;50532.06;5097673;27;20084;-74
2021/12/13 11:36:47;;;;;;;23.48;5.22;;;;;;;-149.78;100.00;50541.84;5134661;27;20031;-74
2021/12/13 11:39:50;;;;;;;16.65;4.53;;;;;;;-149.78;100.00;50565.31;5134779;27;20037;-73
2021/12/13 11:42:19;;;;;;;18.40;5.00;;;;;;;-149.78;100.00;50506.66;5123545;27;20114;-73
2021/12/13 11:45:19;;;;;;;17.20;4.78;;;;;;;-149.78;100.00;50510.56;5116546;27;20026;-73
2021/12/13 11:47:50;;;;;;;22.75;5.28;;;;;;;-149.78;100.00;50518.38;5153159;27;20103;-74
2021/12/13 11:50:53;;;;;;;19.25;5.50;;;;;;;-149.78;100.00;50510.56;5118798;27;20027;-73
2021/12/13 11:53:41;;;;;;;19.60;5.10;;;;;;;-149.78;100.00;50491.00;5116090;27;20115;-74